sensor_id;sensor_type;location;lat;lon;timestamp;P1;durP1;ratioP1;P2;durP2;ratioP2
359;SDS011;168;48.872;9.226;2022-12-07T00:00:54;12.57;;;11.27;;
359;SDS011;168;48.872;9.226;2022-12-07T00:03:22;14.73;;;11.90;;
359;SDS011;168;48.872;9.226;2022-12-07T00:05:49;11.73;;;10.57;;
359;SDS011;168;48.872;9.226;2022-12-07T00:08:16;11.63;;;10.43;;
359;SDS011;168;48.872;9.226;2022-12-07T00:10:44;12.07;;;10.77;;
359;SDS011;168;48.872;9.226;2022-12-07T00:13:11;12.17;;;10.07;;
359;SDS011;168;48.872;9.226;2022-12-07T00:15:40;13.33;;;11.30;;
359;SDS011;168;48.872;9.226;2022-12-07T00:18:07;11.90;;;10.70;;
359;SDS011;168;48.872;9.226;2022-12-07T00:20:34;11.97;;;10.77;;
359;SDS011;168;48.872;9.226;2022-12-07T00:23:02;10.93;;;9.73;;
359;SDS011;168;48.872;9.226;2022-12-07T00:25:29;11.03;;;9.93;;
359;SDS011;168;48.872;9.226;2022-12-07T00:27:57;10.70;;;9.60;;
359;SDS011;168;48.872;9.226;2022-12-07T00:30:24;11.03;;;9.90;;
359;SDS011;168;48.872;9.226;2022-12-07T00:32:53;11.93;;;9.07;;
359;SDS011;168;48.872;9.226;2022-12-07T00:35:20;10.77;;;9.07;;
359;SDS011;168;48.872;9.226;2022-12-07T00:37:47;12.90;;;10.50;;
359;SDS011;168;48.872;9.226;2022-12-07T00:40:15;11.10;;;10.00;;
359;SDS011;168;48.872;9.226;2022-12-07T00:42:42;10.63;;;9.43;;
359;SDS011;168;48.872;9.226;2022-12-07T00:45:10;12.53;;;10.57;;
359;SDS011;168;48.872;9.226;2022-12-07T00:47:37;11.43;;;10.33;;
359;SDS011;168;48.872;9.226;2022-12-07T00:50:06;12.00;;;10.50;;
359;SDS011;168;48.872;9.226;2022-12-07T00:52:34;13.17;;;10.83;;
359;SDS011;168;48.872;9.226;2022-12-07T00:55:01;11.47;;;10.27;;
359;SDS011;168;48.872;9.226;2022-12-07T00:57:30;11.70;;;10.50;;
359;SDS011;168;48.872;9.226;2022-12-07T00:59:58;11.77;;;10.53;;
359;SDS011;168;48.872;9.226;2022-12-07T01:02:26;12.47;;;10.53;;
359;SDS011;168;48.872;9.226;2022-12-07T01:04:53;11.70;;;10.50;;
359;SDS011;168;48.872;9.226;2022-12-07T01:07:21;11.20;;;10.10;;
359;SDS011;168;48.872;9.226;2022-12-07T01:09:49;13.27;;;11.87;;
359;SDS011;168;48.872;9.226;2022-12-07T01:12:16;12.87;;;10.13;;
359;SDS011;168;48.872;9.226;2022-12-07T01:14:43;11.77;;;10.60;;
359;SDS011;168;48.872;9.226;2022-12-07T01:17:11;12.77;;;11.33;;
359;SDS011;168;48.872;9.226;2022-12-07T01:19:38;13.03;;;11.00;;
359;SDS011;168;48.872;9.226;2022-12-07T01:22:05;14.63;;;11.20;;
359;SDS011;168;48.872;9.226;2022-12-07T01:24:34;13.47;;;11.33;;
359;SDS011;168;48.872;9.226;2022-12-07T01:27:01;13.13;;;11.40;;
359;SDS011;168;48.872;9.226;2022-12-07T01:29:29;13.93;;;11.60;;
359;SDS011;168;48.872;9.226;2022-12-07T01:31:56;13.33;;;10.77;;
359;SDS011;168;48.872;9.226;2022-12-07T01:34:24;11.43;;;10.27;;
359;SDS011;168;48.872;9.226;2022-12-07T01:36:51;12.10;;;10.80;;
359;SDS011;168;48.872;9.226;2022-12-07T01:39:18;14.37;;;11.87;;
359;SDS011;168;48.872;9.226;2022-12-07T01:41:47;13.00;;;11.43;;
359;SDS011;168;48.872;9.226;2022-12-07T01:44:16;11.57;;;10.20;;
359;SDS011;168;48.872;9.226;2022-12-07T01:46:46;12.63;;;11.47;;
359;SDS011;168;48.872;9.226;2022-12-07T01:49:16;12.60;;;10.30;;
359;SDS011;168;48.872;9.226;2022-12-07T01:51:48;12.40;;;10.80;;
359;SDS011;168;48.872;9.226;2022-12-07T01:54:18;12.80;;;10.47;;
359;SDS011;168;48.872;9.226;2022-12-07T01:56:50;14.40;;;11.10;;
359;SDS011;168;48.872;9.226;2022-12-07T01:59:20;12.40;;;10.90;;
359;SDS011;168;48.872;9.226;2022-12-07T02:01:51;10.63;;;9.53;;
359;SDS011;168;48.872;9.226;2022-12-07T02:04:18;11.43;;;10.27;;
359;SDS011;168;48.872;9.226;2022-12-07T02:06:48;12.60;;;10.30;;
359;SDS011;168;48.872;9.226;2022-12-07T02:09:16;12.30;;;11.00;;
359;SDS011;168;48.872;9.226;2022-12-07T02:11:43;12.43;;;10.70;;
359;SDS011;168;48.872;9.226;2022-12-07T02:14:12;12.83;;;10.70;;
359;SDS011;168;48.872;9.226;2022-12-07T02:16:43;12.50;;;11.20;;
359;SDS011;168;48.872;9.226;2022-12-07T02:19:26;13.53;;;10.50;;
359;SDS011;168;48.872;9.226;2022-12-07T02:22:19;12.17;;;10.13;;
359;SDS011;168;48.872;9.226;2022-12-07T02:25:04;12.50;;;10.53;;
359;SDS011;168;48.872;9.226;2022-12-07T02:27:43;11.30;;;10.20;;
359;SDS011;168;48.872;9.226;2022-12-07T02:30:15;13.00;;;11.70;;
359;SDS011;168;48.872;9.226;2022-12-07T02:32:46;14.53;;;12.10;;
359;SDS011;168;48.872;9.226;2022-12-07T02:35:20;13.20;;;11.37;;
359;SDS011;168;48.872;9.226;2022-12-07T02:37:56;13.43;;;11.00;;
359;SDS011;168;48.872;9.226;2022-12-07T02:40:29;14.97;;;12.30;;
359;SDS011;168;48.872;9.226;2022-12-07T02:43:02;12.57;;;11.03;;
359;SDS011;168;48.872;9.226;2022-12-07T02:45:36;13.37;;;11.70;;
359;SDS011;168;48.872;9.226;2022-12-07T02:48:07;11.73;;;10.43;;
359;SDS011;168;48.872;9.226;2022-12-07T02:50:38;12.17;;;10.97;;
359;SDS011;168;48.872;9.226;2022-12-07T02:55:56;11.20;;;9.87;;
359;SDS011;168;48.872;9.226;2022-12-07T02:58:27;11.33;;;10.13;;
359;SDS011;168;48.872;9.226;2022-12-07T03:01:08;11.97;;;10.63;;
359;SDS011;168;48.872;9.226;2022-12-07T03:03:42;11.20;;;10.10;;
359;SDS011;168;48.872;9.226;2022-12-07T03:06:16;11.03;;;9.80;;
359;SDS011;168;48.872;9.226;2022-12-07T03:08:51;12.10;;;10.60;;
359;SDS011;168;48.872;9.226;2022-12-07T03:11:25;12.30;;;10.50;;
359;SDS011;168;48.872;9.226;2022-12-07T03:13:58;10.60;;;9.50;;
359;SDS011;168;48.872;9.226;2022-12-07T03:16:32;10.07;;;9.07;;
359;SDS011;168;48.872;9.226;2022-12-07T03:19:03;11.47;;;10.33;;
359;SDS011;168;48.872;9.226;2022-12-07T03:21:38;13.80;;;9.83;;
359;SDS011;168;48.872;9.226;2022-12-07T03:24:08;13.07;;;9.77;;
359;SDS011;168;48.872;9.226;2022-12-07T03:26:40;11.00;;;9.33;;
359;SDS011;168;48.872;9.226;2022-12-07T03:29:11;12.37;;;10.47;;
359;SDS011;168;48.872;9.226;2022-12-07T03:31:43;10.47;;;9.37;;
359;SDS011;168;48.872;9.226;2022-12-07T03:34:16;12.90;;;9.70;;
359;SDS011;168;48.872;9.226;2022-12-07T03:36:49;12.30;;;10.27;;
359;SDS011;168;48.872;9.226;2022-12-07T03:39:22;11.67;;;9.50;;
359;SDS011;168;48.872;9.226;2022-12-07T03:41:52;12.63;;;10.80;;
359;SDS011;168;48.872;9.226;2022-12-07T03:44:20;11.93;;;9.57;;
359;SDS011;168;48.872;9.226;2022-12-07T03:46:52;11.83;;;9.43;;
359;SDS011;168;48.872;9.226;2022-12-07T03:49:27;12.13;;;10.40;;
359;SDS011;168;48.872;9.226;2022-12-07T03:52:00;10.93;;;9.83;;
359;SDS011;168;48.872;9.226;2022-12-07T03:54:34;11.17;;;9.80;;
359;SDS011;168;48.872;9.226;2022-12-07T03:57:06;10.57;;;9.47;;
359;SDS011;168;48.872;9.226;2022-12-07T03:59:35;11.53;;;10.43;;
359;SDS011;168;48.872;9.226;2022-12-07T04:02:05;14.63;;;11.07;;
359;SDS011;168;48.872;9.226;2022-12-07T04:04:34;17.50;;;11.07;;
359;SDS011;168;48.872;9.226;2022-12-07T04:07:01;12.30;;;10.83;;
359;SDS011;168;48.872;9.226;2022-12-07T04:09:29;11.70;;;10.10;;
359;SDS011;168;48.872;9.226;2022-12-07T04:11:56;13.83;;;12.43;;
359;SDS011;168;48.872;9.226;2022-12-07T04:14:24;11.57;;;10.37;;
359;SDS011;168;48.872;9.226;2022-12-07T04:16:51;11.77;;;10.57;;
359;SDS011;168;48.872;9.226;2022-12-07T04:19:24;11.90;;;9.97;;
359;SDS011;168;48.872;9.226;2022-12-07T04:21:53;11.73;;;10.53;;
359;SDS011;168;48.872;9.226;2022-12-07T04:24:21;11.40;;;9.40;;
359;SDS011;168;48.872;9.226;2022-12-07T04:26:48;13.73;;;10.47;;
359;SDS011;168;48.872;9.226;2022-12-07T04:29:16;10.80;;;9.70;;
359;SDS011;168;48.872;9.226;2022-12-07T04:31:44;12.33;;;10.73;;
359;SDS011;168;48.872;9.226;2022-12-07T04:34:11;13.10;;;11.10;;
359;SDS011;168;48.872;9.226;2022-12-07T04:36:43;11.57;;;10.30;;
359;SDS011;168;48.872;9.226;2022-12-07T04:39:13;14.17;;;10.67;;
359;SDS011;168;48.872;9.226;2022-12-07T04:41:45;11.80;;;10.60;;
359;SDS011;168;48.872;9.226;2022-12-07T04:44:13;11.80;;;10.60;;
359;SDS011;168;48.872;9.226;2022-12-07T04:46:41;13.60;;;10.37;;
359;SDS011;168;48.872;9.226;2022-12-07T04:49:09;11.60;;;10.03;;
359;SDS011;168;48.872;9.226;2022-12-07T04:51:37;11.60;;;9.30;;
359;SDS011;168;48.872;9.226;2022-12-07T04:54:06;11.60;;;10.13;;
359;SDS011;168;48.872;9.226;2022-12-07T04:56:34;11.90;;;10.63;;
359;SDS011;168;48.872;9.226;2022-12-07T04:59:02;12.23;;;10.40;;
359;SDS011;168;48.872;9.226;2022-12-07T05:01:30;11.47;;;10.27;;
359;SDS011;168;48.872;9.226;2022-12-07T05:03:58;10.87;;;9.30;;
359;SDS011;168;48.872;9.226;2022-12-07T05:06:26;11.87;;;9.60;;
359;SDS011;168;48.872;9.226;2022-12-07T05:08:53;11.43;;;10.30;;
359;SDS011;168;48.872;9.226;2022-12-07T05:11:22;10.57;;;9.57;;
359;SDS011;168;48.872;9.226;2022-12-07T05:14:05;11.67;;;9.30;;
359;SDS011;168;48.872;9.226;2022-12-07T05:16:34;12.80;;;11.30;;
359;SDS011;168;48.872;9.226;2022-12-07T05:19:01;12.50;;;10.10;;
359;SDS011;168;48.872;9.226;2022-12-07T05:21:29;12.57;;;10.53;;
359;SDS011;168;48.872;9.226;2022-12-07T05:23:57;16.03;;;12.30;;
359;SDS011;168;48.872;9.226;2022-12-07T05:26:26;11.87;;;9.60;;
359;SDS011;168;48.872;9.226;2022-12-07T05:28:54;13.90;;;11.33;;
359;SDS011;168;48.872;9.226;2022-12-07T05:31:23;17.47;;;13.00;;
359;SDS011;168;48.872;9.226;2022-12-07T05:33:51;15.53;;;12.23;;
359;SDS011;168;48.872;9.226;2022-12-07T05:36:19;13.60;;;11.80;;
359;SDS011;168;48.872;9.226;2022-12-07T05:38:46;13.87;;;11.83;;
359;SDS011;168;48.872;9.226;2022-12-07T05:41:14;15.53;;;12.10;;
359;SDS011;168;48.872;9.226;2022-12-07T05:44:02;13.63;;;11.67;;
359;SDS011;168;48.872;9.226;2022-12-07T05:46:30;17.00;;;12.50;;
359;SDS011;168;48.872;9.226;2022-12-07T05:48:57;16.93;;;12.53;;
359;SDS011;168;48.872;9.226;2022-12-07T05:51:25;14.20;;;12.10;;
359;SDS011;168;48.872;9.226;2022-12-07T05:53:52;14.87;;;12.20;;
359;SDS011;168;48.872;9.226;2022-12-07T05:56:20;13.20;;;11.37;;
359;SDS011;168;48.872;9.226;2022-12-07T05:58:48;15.60;;;12.07;;
359;SDS011;168;48.872;9.226;2022-12-07T06:01:34;14.63;;;12.83;;
359;SDS011;168;48.872;9.226;2022-12-07T06:04:01;13.90;;;11.67;;
359;SDS011;168;48.872;9.226;2022-12-07T06:06:29;15.33;;;11.70;;
359;SDS011;168;48.872;9.226;2022-12-07T06:08:56;14.00;;;12.00;;
359;SDS011;168;48.872;9.226;2022-12-07T06:11:24;15.23;;;11.50;;
359;SDS011;168;48.872;9.226;2022-12-07T06:14:08;12.53;;;10.53;;
359;SDS011;168;48.872;9.226;2022-12-07T06:16:37;12.50;;;11.20;;
359;SDS011;168;48.872;9.226;2022-12-07T06:19:05;12.80;;;10.67;;
359;SDS011;168;48.872;9.226;2022-12-07T06:21:32;12.90;;;11.17;;
359;SDS011;168;48.872;9.226;2022-12-07T06:23:59;12.82;;;11.40;;
359;SDS011;168;48.872;9.226;2022-12-07T06:26:27;13.13;;;11.43;;
359;SDS011;168;48.872;9.226;2022-12-07T06:28:54;13.20;;;10.27;;
359;SDS011;168;48.872;9.226;2022-12-07T06:31:22;12.30;;;10.37;;
359;SDS011;168;48.872;9.226;2022-12-07T06:33:50;13.23;;;11.63;;
359;SDS011;168;48.872;9.226;2022-12-07T06:36:18;12.73;;;10.30;;
359;SDS011;168;48.872;9.226;2022-12-07T06:38:45;11.80;;;10.30;;
359;SDS011;168;48.872;9.226;2022-12-07T06:41:12;12.27;;;10.07;;
359;SDS011;168;48.872;9.226;2022-12-07T06:43:40;12.63;;;10.13;;
359;SDS011;168;48.872;9.226;2022-12-07T06:46:07;11.70;;;10.20;;
359;SDS011;168;48.872;9.226;2022-12-07T06:48:35;11.67;;;10.17;;
359;SDS011;168;48.872;9.226;2022-12-07T06:51:04;11.20;;;9.70;;
359;SDS011;168;48.872;9.226;2022-12-07T06:53:32;12.60;;;10.10;;
359;SDS011;168;48.872;9.226;2022-12-07T06:55:59;11.17;;;9.57;;
359;SDS011;168;48.872;9.226;2022-12-07T06:58:27;11.10;;;9.90;;
359;SDS011;168;48.872;9.226;2022-12-07T07:00:54;12.47;;;10.17;;
359;SDS011;168;48.872;9.226;2022-12-07T07:03:21;13.83;;;10.80;;
359;SDS011;168;48.872;9.226;2022-12-07T07:05:49;13.83;;;11.20;;
359;SDS011;168;48.872;9.226;2022-12-07T07:08:18;10.67;;;9.57;;
359;SDS011;168;48.872;9.226;2022-12-07T07:10:45;10.87;;;9.63;;
359;SDS011;168;48.872;9.226;2022-12-07T07:13:12;10.00;;;8.97;;
359;SDS011;168;48.872;9.226;2022-12-07T07:15:40;12.40;;;10.70;;
359;SDS011;168;48.872;9.226;2022-12-07T07:18:08;11.30;;;10.10;;
359;SDS011;168;48.872;9.226;2022-12-07T07:20:35;12.90;;;10.30;;
359;SDS011;168;48.872;9.226;2022-12-07T07:23:02;11.90;;;9.30;;
359;SDS011;168;48.872;9.226;2022-12-07T07:25:31;12.53;;;11.00;;
359;SDS011;168;48.872;9.226;2022-12-07T07:27:59;11.37;;;9.77;;
359;SDS011;168;48.872;9.226;2022-12-07T07:30:26;11.93;;;9.97;;
359;SDS011;168;48.872;9.226;2022-12-07T07:32:55;11.43;;;8.97;;
359;SDS011;168;48.872;9.226;2022-12-07T07:35:23;10.33;;;9.27;;
359;SDS011;168;48.872;9.226;2022-12-07T07:37:50;9.70;;;8.60;;
359;SDS011;168;48.872;9.226;2022-12-07T07:40:18;11.60;;;9.20;;
359;SDS011;168;48.872;9.226;2022-12-07T07:42:48;10.50;;;9.43;;
359;SDS011;168;48.872;9.226;2022-12-07T07:45:15;10.07;;;8.50;;
359;SDS011;168;48.872;9.226;2022-12-07T07:47:43;10.70;;;8.70;;
359;SDS011;168;48.872;9.226;2022-12-07T07:50:10;10.73;;;9.30;;
359;SDS011;168;48.872;9.226;2022-12-07T07:52:38;9.80;;;8.63;;
359;SDS011;168;48.872;9.226;2022-12-07T07:55:06;10.40;;;8.93;;
359;SDS011;168;48.872;9.226;2022-12-07T07:57:34;9.60;;;8.70;;
359;SDS011;168;48.872;9.226;2022-12-07T08:00:04;10.80;;;9.03;;
359;SDS011;168;48.872;9.226;2022-12-07T08:02:32;11.73;;;8.20;;
359;SDS011;168;48.872;9.226;2022-12-07T08:05:00;8.43;;;7.53;;
359;SDS011;168;48.872;9.226;2022-12-07T08:07:28;11.50;;;9.00;;
359;SDS011;168;48.872;9.226;2022-12-07T08:09:55;11.30;;;8.90;;
359;SDS011;168;48.872;9.226;2022-12-07T08:12:22;8.83;;;8.03;;
359;SDS011;168;48.872;9.226;2022-12-07T08:14:50;10.43;;;8.87;;
359;SDS011;168;48.872;9.226;2022-12-07T08:17:18;10.40;;;8.57;;
359;SDS011;168;48.872;9.226;2022-12-07T08:19:46;10.90;;;8.07;;
359;SDS011;168;48.872;9.226;2022-12-07T08:22:13;8.27;;;7.47;;
359;SDS011;168;48.872;9.226;2022-12-07T08:24:40;8.87;;;7.43;;
359;SDS011;168;48.872;9.226;2022-12-07T08:27:07;8.07;;;7.23;;
359;SDS011;168;48.872;9.226;2022-12-07T08:29:35;8.40;;;7.50;;
359;SDS011;168;48.872;9.226;2022-12-07T08:32:03;8.03;;;7.33;;
359;SDS011;168;48.872;9.226;2022-12-07T08:34:31;9.20;;;8.30;;
359;SDS011;168;48.872;9.226;2022-12-07T08:36:59;13.97;;;8.13;;
359;SDS011;168;48.872;9.226;2022-12-07T08:39:27;8.87;;;7.33;;
359;SDS011;168;48.872;9.226;2022-12-07T08:41:54;8.67;;;7.77;;
359;SDS011;168;48.872;9.226;2022-12-07T08:44:21;7.83;;;6.83;;
359;SDS011;168;48.872;9.226;2022-12-07T08:46:49;7.17;;;6.47;;
359;SDS011;168;48.872;9.226;2022-12-07T08:49:20;8.27;;;7.40;;
359;SDS011;168;48.872;9.226;2022-12-07T08:51:51;7.67;;;6.73;;
359;SDS011;168;48.872;9.226;2022-12-07T08:54:18;7.90;;;7.07;;
359;SDS011;168;48.872;9.226;2022-12-07T08:56:46;8.00;;;6.80;;
359;SDS011;168;48.872;9.226;2022-12-07T08:59:16;8.03;;;6.30;;
359;SDS011;168;48.872;9.226;2022-12-07T09:01:44;6.23;;;5.63;;
359;SDS011;168;48.872;9.226;2022-12-07T09:04:12;7.20;;;6.20;;
359;SDS011;168;48.872;9.226;2022-12-07T09:06:40;7.13;;;6.43;;
359;SDS011;168;48.872;9.226;2022-12-07T09:09:09;6.70;;;6.10;;
359;SDS011;168;48.872;9.226;2022-12-07T09:11:39;6.93;;;5.80;;
359;SDS011;168;48.872;9.226;2022-12-07T09:14:07;7.53;;;6.60;;
359;SDS011;168;48.872;9.226;2022-12-07T09:16:35;7.57;;;6.67;;
359;SDS011;168;48.872;9.226;2022-12-07T09:19:02;7.03;;;6.10;;
359;SDS011;168;48.872;9.226;2022-12-07T09:21:29;7.13;;;6.43;;
359;SDS011;168;48.872;9.226;2022-12-07T09:23:57;7.43;;;6.67;;
359;SDS011;168;48.872;9.226;2022-12-07T09:26:26;7.00;;;5.70;;
359;SDS011;168;48.872;9.226;2022-12-07T09:28:53;6.73;;;6.10;;
359;SDS011;168;48.872;9.226;2022-12-07T09:31:21;5.97;;;5.37;;
359;SDS011;168;48.872;9.226;2022-12-07T09:33:52;7.37;;;6.30;;
359;SDS011;168;48.872;9.226;2022-12-07T09:36:20;8.07;;;6.20;;
359;SDS011;168;48.872;9.226;2022-12-07T09:38:47;6.40;;;5.53;;
359;SDS011;168;48.872;9.226;2022-12-07T09:41:15;7.10;;;5.20;;
359;SDS011;168;48.872;9.226;2022-12-07T09:43:43;6.13;;;5.10;;
359;SDS011;168;48.872;9.226;2022-12-07T09:46:13;5.20;;;4.50;;
359;SDS011;168;48.872;9.226;2022-12-07T09:48:42;4.93;;;4.13;;
359;SDS011;168;48.872;9.226;2022-12-07T09:51:13;4.90;;;4.20;;
359;SDS011;168;48.872;9.226;2022-12-07T09:53:43;5.80;;;4.87;;
359;SDS011;168;48.872;9.226;2022-12-07T09:56:11;4.33;;;3.93;;
359;SDS011;168;48.872;9.226;2022-12-07T09:58:41;5.10;;;4.60;;
359;SDS011;168;48.872;9.226;2022-12-07T10:01:11;5.67;;;4.83;;
359;SDS011;168;48.872;9.226;2022-12-07T10:03:42;5.60;;;5.00;;
359;SDS011;168;48.872;9.226;2022-12-07T10:06:15;7.93;;;5.03;;
359;SDS011;168;48.872;9.226;2022-12-07T10:08:42;6.70;;;5.33;;
359;SDS011;168;48.872;9.226;2022-12-07T10:11:11;5.80;;;4.70;;
359;SDS011;168;48.872;9.226;2022-12-07T10:13:41;5.43;;;4.90;;
359;SDS011;168;48.872;9.226;2022-12-07T10:16:27;5.40;;;4.90;;
359;SDS011;168;48.872;9.226;2022-12-07T10:22:03;6.63;;;5.27;;
359;SDS011;168;48.872;9.226;2022-12-07T10:24:35;6.10;;;5.50;;
359;SDS011;168;48.872;9.226;2022-12-07T10:27:04;6.07;;;4.80;;
359;SDS011;168;48.872;9.226;2022-12-07T10:29:46;7.00;;;4.90;;
359;SDS011;168;48.872;9.226;2022-12-07T10:32:28;5.97;;;5.37;;
359;SDS011;168;48.872;9.226;2022-12-07T10:35:18;7.93;;;5.43;;
359;SDS011;168;48.872;9.226;2022-12-07T10:37:48;5.33;;;4.30;;
359;SDS011;168;48.872;9.226;2022-12-07T10:40:27;6.70;;;4.20;;
359;SDS011;168;48.872;9.226;2022-12-07T10:43:03;5.10;;;3.93;;
359;SDS011;168;48.872;9.226;2022-12-07T10:45:34;3.87;;;3.57;;
359;SDS011;168;48.872;9.226;2022-12-07T10:48:13;5.00;;;4.60;;
359;SDS011;168;48.872;9.226;2022-12-07T10:50:52;5.13;;;4.00;;
359;SDS011;168;48.872;9.226;2022-12-07T10:53:36;4.67;;;4.20;;
359;SDS011;168;48.872;9.226;2022-12-07T10:56:17;6.07;;;3.60;;
359;SDS011;168;48.872;9.226;2022-12-07T10:58:57;4.10;;;3.70;;
359;SDS011;168;48.872;9.226;2022-12-07T11:01:43;4.60;;;4.10;;
359;SDS011;168;48.872;9.226;2022-12-07T11:04:27;5.63;;;4.63;;
359;SDS011;168;48.872;9.226;2022-12-07T11:07:01;5.30;;;4.57;;
359;SDS011;168;48.872;9.226;2022-12-07T11:12:30;4.90;;;4.40;;
359;SDS011;168;48.872;9.226;2022-12-07T11:15:10;6.23;;;5.20;;
359;SDS011;168;48.872;9.226;2022-12-07T11:17:43;5.00;;;4.53;;
359;SDS011;168;48.872;9.226;2022-12-07T11:20:23;5.77;;;5.20;;
359;SDS011;168;48.872;9.226;2022-12-07T11:23:03;6.70;;;6.00;;
359;SDS011;168;48.872;9.226;2022-12-07T11:25:42;5.80;;;4.97;;
359;SDS011;168;48.872;9.226;2022-12-07T11:28:23;6.40;;;5.63;;
359;SDS011;168;48.872;9.226;2022-12-07T11:31:03;7.73;;;5.97;;
359;SDS011;168;48.872;9.226;2022-12-07T11:33:37;8.70;;;6.23;;
359;SDS011;168;48.872;9.226;2022-12-07T11:36:16;7.17;;;6.47;;
359;SDS011;168;48.872;9.226;2022-12-07T11:38:58;10.37;;;6.83;;
359;SDS011;168;48.872;9.226;2022-12-07T11:41:30;8.73;;;6.83;;
359;SDS011;168;48.872;9.226;2022-12-07T11:44:02;10.13;;;7.03;;
359;SDS011;168;48.872;9.226;2022-12-07T11:46:37;7.90;;;6.50;;
359;SDS011;168;48.872;9.226;2022-12-07T11:49:13;8.40;;;7.17;;
359;SDS011;168;48.872;9.226;2022-12-07T11:51:47;10.43;;;6.20;;
359;SDS011;168;48.872;9.226;2022-12-07T11:54:18;8.40;;;6.93;;
359;SDS011;168;48.872;9.226;2022-12-07T11:56:48;8.43;;;6.53;;
359;SDS011;168;48.872;9.226;2022-12-07T11:59:19;9.43;;;7.70;;
359;SDS011;168;48.872;9.226;2022-12-07T12:01:53;9.03;;;7.93;;
359;SDS011;168;48.872;9.226;2022-12-07T12:04:27;10.43;;;8.30;;
359;SDS011;168;48.872;9.226;2022-12-07T12:07:00;9.60;;;7.87;;
359;SDS011;168;48.872;9.226;2022-12-07T12:09:30;8.50;;;7.33;;
359;SDS011;168;48.872;9.226;2022-12-07T12:12:10;7.47;;;6.43;;
359;SDS011;168;48.872;9.226;2022-12-07T12:14:50;8.23;;;7.00;;
359;SDS011;168;48.872;9.226;2022-12-07T12:20:22;8.47;;;7.53;;
359;SDS011;168;48.872;9.226;2022-12-07T12:22:55;7.10;;;5.70;;
359;SDS011;168;48.872;9.226;2022-12-07T12:25:28;8.90;;;7.37;;
359;SDS011;168;48.872;9.226;2022-12-07T12:27:58;10.40;;;8.23;;
359;SDS011;168;48.872;9.226;2022-12-07T12:30:30;9.00;;;7.60;;
359;SDS011;168;48.872;9.226;2022-12-07T12:33:01;9.30;;;8.17;;
359;SDS011;168;48.872;9.226;2022-12-07T12:35:31;10.60;;;7.93;;
359;SDS011;168;48.872;9.226;2022-12-07T12:40:55;9.07;;;8.17;;
359;SDS011;168;48.872;9.226;2022-12-07T12:43:42;10.67;;;8.27;;
359;SDS011;168;48.872;9.226;2022-12-07T12:55:14;10.93;;;8.57;;
359;SDS011;168;48.872;9.226;2022-12-07T12:57:45;8.73;;;7.83;;
359;SDS011;168;48.872;9.226;2022-12-07T13:00:17;9.80;;;8.40;;
359;SDS011;168;48.872;9.226;2022-12-07T13:02:49;9.57;;;8.07;;
359;SDS011;168;48.872;9.226;2022-12-07T13:05:19;9.70;;;8.50;;
359;SDS011;168;48.872;9.226;2022-12-07T13:07:52;10.00;;;7.90;;
359;SDS011;168;48.872;9.226;2022-12-07T13:10:37;10.63;;;7.57;;
359;SDS011;168;48.872;9.226;2022-12-07T13:25:11;10.90;;;9.17;;
359;SDS011;168;48.872;9.226;2022-12-07T13:27:46;14.17;;;10.40;;
359;SDS011;168;48.872;9.226;2022-12-07T13:30:19;13.00;;;9.50;;
359;SDS011;168;48.872;9.226;2022-12-07T13:32:51;12.27;;;10.97;;
359;SDS011;168;48.872;9.226;2022-12-07T13:35:29;11.43;;;9.80;;
359;SDS011;168;48.872;9.226;2022-12-07T13:37:58;11.87;;;9.80;;
359;SDS011;168;48.872;9.226;2022-12-07T13:40:28;12.53;;;10.33;;
359;SDS011;168;48.872;9.226;2022-12-07T13:42:58;12.27;;;10.00;;
359;SDS011;168;48.872;9.226;2022-12-07T13:45:28;14.90;;;10.13;;
359;SDS011;168;48.872;9.226;2022-12-07T13:48:14;11.20;;;9.77;;
359;SDS011;168;48.872;9.226;2022-12-07T13:50:52;13.07;;;10.17;;
359;SDS011;168;48.872;9.226;2022-12-07T13:53:21;12.07;;;10.77;;
359;SDS011;168;48.872;9.226;2022-12-07T13:55:48;12.00;;;10.60;;
359;SDS011;168;48.872;9.226;2022-12-07T13:58:18;17.27;;;10.30;;
359;SDS011;168;48.872;9.226;2022-12-07T14:00:45;17.80;;;9.90;;
359;SDS011;168;48.872;9.226;2022-12-07T14:03:25;12.57;;;10.50;;
359;SDS011;168;48.872;9.226;2022-12-07T14:06:05;11.80;;;10.40;;
359;SDS011;168;48.872;9.226;2022-12-07T14:08:38;16.60;;;10.77;;
359;SDS011;168;48.872;9.226;2022-12-07T14:11:05;12.23;;;9.63;;
359;SDS011;168;48.872;9.226;2022-12-07T14:13:37;10.40;;;8.47;;
359;SDS011;168;48.872;9.226;2022-12-07T14:16:17;12.00;;;9.70;;
359;SDS011;168;48.872;9.226;2022-12-07T14:18:49;14.70;;;10.40;;
359;SDS011;168;48.872;9.226;2022-12-07T14:21:17;12.30;;;9.27;;
359;SDS011;168;48.872;9.226;2022-12-07T14:24:02;12.30;;;9.57;;
359;SDS011;168;48.872;9.226;2022-12-07T14:26:35;12.80;;;10.17;;
359;SDS011;168;48.872;9.226;2022-12-07T14:29:31;14.30;;;10.83;;
359;SDS011;168;48.872;9.226;2022-12-07T14:32:14;14.23;;;10.20;;
359;SDS011;168;48.872;9.226;2022-12-07T14:34:55;13.97;;;10.20;;
359;SDS011;168;48.872;9.226;2022-12-07T14:37:23;11.87;;;9.80;;
359;SDS011;168;48.872;9.226;2022-12-07T14:39:51;18.43;;;12.10;;
359;SDS011;168;48.872;9.226;2022-12-07T14:42:18;13.10;;;11.20;;
359;SDS011;168;48.872;9.226;2022-12-07T14:44:48;13.47;;;10.20;;
359;SDS011;168;48.872;9.226;2022-12-07T14:47:15;17.07;;;10.90;;
359;SDS011;168;48.872;9.226;2022-12-07T14:49:43;14.27;;;10.03;;
359;SDS011;168;48.872;9.226;2022-12-07T14:52:13;13.63;;;9.60;;
359;SDS011;168;48.872;9.226;2022-12-07T14:54:43;12.90;;;10.13;;
359;SDS011;168;48.872;9.226;2022-12-07T14:57:10;12.93;;;9.67;;
359;SDS011;168;48.872;9.226;2022-12-07T14:59:37;12.10;;;10.23;;
359;SDS011;168;48.872;9.226;2022-12-07T15:02:08;13.20;;;11.33;;
359;SDS011;168;48.872;9.226;2022-12-07T15:04:37;18.20;;;11.07;;
359;SDS011;168;48.872;9.226;2022-12-07T15:07:05;12.60;;;10.07;;
359;SDS011;168;48.872;9.226;2022-12-07T15:09:36;12.83;;;10.47;;
359;SDS011;168;48.872;9.226;2022-12-07T15:12:03;12.57;;;9.87;;
359;SDS011;168;48.872;9.226;2022-12-07T15:14:31;12.60;;;9.53;;
359;SDS011;168;48.872;9.226;2022-12-07T15:16:58;10.80;;;9.27;;
359;SDS011;168;48.872;9.226;2022-12-07T15:19:27;11.20;;;8.60;;
359;SDS011;168;48.872;9.226;2022-12-07T15:21:54;12.93;;;9.30;;
359;SDS011;168;48.872;9.226;2022-12-07T15:24:23;11.83;;;9.70;;
359;SDS011;168;48.872;9.226;2022-12-07T15:26:50;14.70;;;11.80;;
359;SDS011;168;48.872;9.226;2022-12-07T15:29:18;18.23;;;11.60;;
359;SDS011;168;48.872;9.226;2022-12-07T15:31:47;13.77;;;9.70;;
359;SDS011;168;48.872;9.226;2022-12-07T15:34:15;15.30;;;11.83;;
359;SDS011;168;48.872;9.226;2022-12-07T15:36:44;14.30;;;11.10;;
359;SDS011;168;48.872;9.226;2022-12-07T15:39:11;15.10;;;11.53;;
359;SDS011;168;48.872;9.226;2022-12-07T15:41:39;12.30;;;9.73;;
359;SDS011;168;48.872;9.226;2022-12-07T15:44:08;15.83;;;11.43;;
359;SDS011;168;48.872;9.226;2022-12-07T15:46:54;17.20;;;11.83;;
359;SDS011;168;48.872;9.226;2022-12-07T15:49:21;15.13;;;11.53;;
359;SDS011;168;48.872;9.226;2022-12-07T15:51:51;17.90;;;13.03;;
359;SDS011;168;48.872;9.226;2022-12-07T15:54:19;21.23;;;11.77;;
359;SDS011;168;48.872;9.226;2022-12-07T15:56:47;15.50;;;12.47;;
359;SDS011;168;48.872;9.226;2022-12-07T15:59:15;16.30;;;11.73;;
359;SDS011;168;48.872;9.226;2022-12-07T16:01:43;15.80;;;12.60;;
359;SDS011;168;48.872;9.226;2022-12-07T16:04:11;14.43;;;11.30;;
359;SDS011;168;48.872;9.226;2022-12-07T16:06:38;17.83;;;12.20;;
359;SDS011;168;48.872;9.226;2022-12-07T16:09:07;16.87;;;12.40;;
359;SDS011;168;48.872;9.226;2022-12-07T16:11:35;17.47;;;12.93;;
359;SDS011;168;48.872;9.226;2022-12-07T16:14:02;14.50;;;12.23;;
359;SDS011;168;48.872;9.226;2022-12-07T16:16:30;16.83;;;11.50;;
359;SDS011;168;48.872;9.226;2022-12-07T16:18:57;18.43;;;13.30;;
359;SDS011;168;48.872;9.226;2022-12-07T16:21:25;18.77;;;12.40;;
359;SDS011;168;48.872;9.226;2022-12-07T16:23:52;18.77;;;13.63;;